createdAt,value
2019-05-16T00:01:51.657Z,1.60
2019-05-16T00:04:15.102Z,2.57
2019-05-16T00:06:39.108Z,2.80
2019-05-16T00:09:03.678Z,2.83
2019-05-16T00:11:28.122Z,3.57
2019-05-16T00:13:51.708Z,3.10
2019-05-16T00:16:15.204Z,2.33
2019-05-16T00:18:38.960Z,2.33
2019-05-16T00:21:02.461Z,2.97
2019-05-16T00:23:25.889Z,1.57
2019-05-16T00:25:49.345Z,3.03
2019-05-16T00:28:12.767Z,2.23
2019-05-16T00:30:36.220Z,3.60
2019-05-16T00:32:59.677Z,2.80
2019-05-16T00:35:23.104Z,6.00
2019-05-16T00:37:48.410Z,1.50
2019-05-16T00:40:12.149Z,2.33
2019-05-16T00:42:35.603Z,3.70
2019-05-16T00:44:59.037Z,2.93
2019-05-16T00:47:22.435Z,2.60
2019-05-16T00:49:47.927Z,2.10
2019-05-16T00:52:11.082Z,4.23
2019-05-16T00:54:34.535Z,2.27
2019-05-16T00:56:59.023Z,3.13
2019-05-16T00:59:23.077Z,3.03
2019-05-16T01:01:49.951Z,1.60
2019-05-16T01:04:11.958Z,1.93
2019-05-16T01:06:35.420Z,1.97
2019-05-16T01:08:58.910Z,1.83
2019-05-16T01:11:22.347Z,2.70
2019-05-16T01:13:45.785Z,1.93
2019-05-16T01:16:09.249Z,1.57
2019-05-16T01:18:32.662Z,2.53
2019-05-16T01:20:58.392Z,1.40
2019-05-16T01:23:21.268Z,1.27
2019-05-16T01:25:45.126Z,2.80
2019-05-16T01:28:08.959Z,1.70
2019-05-16T01:30:32.374Z,2.83
2019-05-16T01:32:58.132Z,2.03
2019-05-16T01:35:20.956Z,2.87
2019-05-16T01:37:44.698Z,1.93
2019-05-16T01:40:08.959Z,2.90
2019-05-16T01:42:32.417Z,1.77
2019-05-16T01:44:57.780Z,2.50
2019-05-16T01:47:21.009Z,1.70
2019-05-16T01:49:44.431Z,1.40
2019-05-16T01:52:08.615Z,3.00
2019-05-16T01:54:32.058Z,1.77
2019-05-16T01:56:55.592Z,3.30
2019-05-16T01:59:19.040Z,2.40
2019-05-16T02:01:42.494Z,3.10
2019-05-16T02:04:05.976Z,4.23
2019-05-16T02:06:29.403Z,2.57
2019-05-16T02:08:52.848Z,4.17
2019-05-16T02:11:18.117Z,1.53
2019-05-16T02:13:41.760Z,1.70
2019-05-16T02:16:05.287Z,2.83
2019-05-16T02:18:29.024Z,3.07
2019-05-16T02:20:52.617Z,1.50
2019-05-16T02:23:18.535Z,2.50
2019-05-16T02:25:41.673Z,1.57
2019-05-16T02:28:05.090Z,2.13
2019-05-16T02:30:31.517Z,1.80
2019-05-16T02:32:53.987Z,1.50
2019-05-16T02:35:20.705Z,1.97
2019-05-16T02:37:43.158Z,6.00
2019-05-16T02:40:11.639Z,2.80
2019-05-16T02:42:33.866Z,2.70
2019-05-16T02:44:57.288Z,2.57
2019-05-16T02:47:21.308Z,2.03
2019-05-16T02:49:44.792Z,1.40
2019-05-16T02:52:10.776Z,5.50
2019-05-16T02:54:33.366Z,1.50
2019-05-16T02:56:56.815Z,2.10
2019-05-16T02:59:20.807Z,1.70
2019-05-16T03:01:44.273Z,1.60
2019-05-16T03:04:10.783Z,2.20
2019-05-16T03:06:33.902Z,2.30
2019-05-16T03:09:04.749Z,3.10
2019-05-16T03:11:25.587Z,2.07
2019-05-16T03:13:51.303Z,2.37
2019-05-16T03:16:15.839Z,2.30
2019-05-16T03:18:42.177Z,2.40
2019-05-16T03:21:07.319Z,4.63
2019-05-16T03:23:31.019Z,1.90
2019-05-16T03:25:54.547Z,3.00
2019-05-16T03:28:21.447Z,2.73
2019-05-16T03:30:45.176Z,5.03
2019-05-16T03:33:14.261Z,3.00
2019-05-16T03:35:34.550Z,2.33
2019-05-16T03:38:03.976Z,2.10
2019-05-16T03:40:26.611Z,2.17
2019-05-16T03:42:51.897Z,2.07
2019-05-16T03:45:15.319Z,2.50
2019-05-16T03:47:42.699Z,1.47
2019-05-16T03:50:07.065Z,3.87
2019-05-16T03:52:31.187Z,1.73
2019-05-16T03:54:54.750Z,2.33
2019-05-16T03:57:21.185Z,2.87
2019-05-16T03:59:43.348Z,3.43
2019-05-16T04:02:06.775Z,1.80
2019-05-16T04:04:30.877Z,1.70
2019-05-16T04:06:54.400Z,3.93
2019-05-16T04:12:41.862Z,4.97
2019-05-16T04:15:10.926Z,2.43
2019-05-16T04:17:32.677Z,2.07
2019-05-16T04:19:56.121Z,1.70
2019-05-16T04:22:21.535Z,2.20
2019-05-16T04:24:44.819Z,2.13
2019-05-16T04:27:11.749Z,2.27
2019-05-16T04:29:33.402Z,2.80
2019-05-16T04:31:56.857Z,4.27
2019-05-16T04:34:20.827Z,4.37
2019-05-16T04:36:44.381Z,3.73
2019-05-16T04:39:11.655Z,5.93
2019-05-16T04:41:33.426Z,5.30
2019-05-16T04:44:00.564Z,8.10
2019-05-16T04:46:22.027Z,4.90
2019-05-16T04:48:45.460Z,4.70
2019-05-16T04:51:10.562Z,11.73
2019-05-16T04:53:34.127Z,6.57
2019-05-16T04:55:57.585Z,4.50
2019-05-16T04:58:23.813Z,3.60
2019-05-16T05:00:46.707Z,4.83
2019-05-16T05:03:11.860Z,2.13
2019-05-16T05:05:35.442Z,5.10
2019-05-16T05:08:01.409Z,3.13
2019-05-16T05:10:24.032Z,4.37
2019-05-16T05:12:47.758Z,3.20
2019-05-16T05:15:13.099Z,2.70
2019-05-16T05:17:36.567Z,2.20
2019-05-16T05:20:01.192Z,3.23
2019-05-16T05:22:24.714Z,2.73
2019-05-16T05:24:48.168Z,4.07
2019-05-16T05:27:11.634Z,5.30
2019-05-16T05:29:35.046Z,2.80
2019-05-16T05:32:04.026Z,2.63
2019-05-16T05:34:23.689Z,2.80
2019-05-16T05:36:47.115Z,4.17
2019-05-16T05:39:15.206Z,4.67
2019-05-16T05:41:36.378Z,3.03
2019-05-16T05:43:59.977Z,5.53
2019-05-16T05:46:23.435Z,4.47
2019-05-16T05:48:46.869Z,3.80
2019-05-16T05:51:11.304Z,4.63
2019-05-16T05:53:35.027Z,3.50
2019-05-16T05:56:00.476Z,5.50
2019-05-16T05:58:23.632Z,8.60
2019-05-16T06:00:47.088Z,11.23
2019-05-16T06:03:10.808Z,5.73
2019-05-16T06:05:34.227Z,5.70
2019-05-16T06:08:00.164Z,3.70
2019-05-16T06:10:22.823Z,4.50
2019-05-16T06:12:46.287Z,5.40
2019-05-16T06:15:12.879Z,4.93
2019-05-16T06:17:35.840Z,3.90
2019-05-16T06:20:00.313Z,3.90
2019-05-16T06:22:23.902Z,4.83
2019-05-16T06:24:47.360Z,5.53
2019-05-16T06:27:10.778Z,3.30
2019-05-16T06:29:34.321Z,8.20
2019-05-16T06:32:00.083Z,4.27
2019-05-16T06:34:22.917Z,4.80
2019-05-16T06:36:46.336Z,3.43
2019-05-16T06:39:11.482Z,4.03
2019-05-16T06:41:35.207Z,5.33
2019-05-16T06:43:59.902Z,3.23
2019-05-16T06:46:23.466Z,5.20
2019-05-16T06:48:46.926Z,2.27
2019-05-16T06:51:10.901Z,2.57
2019-05-16T06:53:34.650Z,5.17
2019-05-16T06:56:00.073Z,12.30
2019-05-16T06:58:23.310Z,8.60
2019-05-16T07:00:46.739Z,12.03
2019-05-16T07:03:12.555Z,5.13
2019-05-16T07:05:35.356Z,4.67
2019-05-16T07:07:59.810Z,3.70
2019-05-16T07:10:23.340Z,4.77
2019-05-16T07:12:46.762Z,4.97
2019-05-16T07:15:12.161Z,4.17
2019-05-16T07:17:36.178Z,3.20
2019-05-16T07:20:00.783Z,3.43
2019-05-16T07:22:24.603Z,3.97
2019-05-16T07:24:50.314Z,4.57
2019-05-16T07:27:13.228Z,9.80
2019-05-16T07:29:36.637Z,5.90
2019-05-16T07:32:00.597Z,5.40
2019-05-16T07:34:24.103Z,6.30
2019-05-16T07:36:50.047Z,4.50
2019-05-16T07:39:12.707Z,7.10
2019-05-16T07:41:36.132Z,4.77
2019-05-16T07:44:00.971Z,6.83
2019-05-16T07:46:24.669Z,5.70
2019-05-16T07:48:51.387Z,8.27
2019-05-16T07:51:13.330Z,5.90
2019-05-16T07:53:36.793Z,4.13
2019-05-16T07:56:00.297Z,3.60
2019-05-16T07:58:23.663Z,4.37
2019-05-16T08:00:56.649Z,4.53
2019-05-16T08:03:12.575Z,5.30
2019-05-16T08:05:36.004Z,4.03
2019-05-16T08:08:00.054Z,6.67
2019-05-16T08:10:37.087Z,3.50
2019-05-16T08:12:51.376Z,4.70
2019-05-16T08:15:14.772Z,4.00
2019-05-16T08:17:41.495Z,3.57
2019-05-16T08:20:03.487Z,4.23
2019-05-16T08:22:30.500Z,4.73
2019-05-16T08:24:52.876Z,3.27
2019-05-16T08:27:16.386Z,4.07
2019-05-16T08:29:40.441Z,2.80
2019-05-16T08:32:04.342Z,3.37
2019-05-16T08:34:27.792Z,3.03
2019-05-16T08:36:51.929Z,3.40
2019-05-16T08:39:15.640Z,3.73
2019-05-16T08:41:42.520Z,4.93
2019-05-16T08:44:05.131Z,7.67
2019-05-16T08:46:31.933Z,5.17
2019-05-16T08:48:54.384Z,3.00
2019-05-16T08:51:21.995Z,4.67
2019-05-16T08:53:43.667Z,5.20
2019-05-16T08:56:07.275Z,4.37
2019-05-16T08:58:33.223Z,3.53
2019-05-16T09:00:56.038Z,3.30
2019-05-16T09:03:22.190Z,7.50
2019-05-16T09:05:44.792Z,4.17
2019-05-16T09:08:08.250Z,6.97
2019-05-16T09:10:49.258Z,5.33
2019-05-16T09:12:57.388Z,3.87
2019-05-16T09:15:21.057Z,5.53
2019-05-16T09:17:47.263Z,4.47
2019-05-16T09:20:10.663Z,5.47
2019-05-16T09:22:37.377Z,3.53
2019-05-16T09:24:59.626Z,4.37
2019-05-16T09:27:23.039Z,3.70
2019-05-16T09:29:47.276Z,4.97
2019-05-16T09:32:17.073Z,3.73
2019-05-16T09:34:37.857Z,5.07
2019-05-16T09:37:02.074Z,3.87
2019-05-16T09:39:27.704Z,3.77
2019-05-16T09:41:55.594Z,4.27
2019-05-16T09:44:18.252Z,4.03
2019-05-16T09:46:41.443Z,4.17
2019-05-16T09:49:16.649Z,3.83
2019-05-16T09:51:30.344Z,4.50
2019-05-16T09:53:56.538Z,6.97
2019-05-16T09:56:19.289Z,6.97
2019-05-16T09:58:42.982Z,5.30
2019-05-16T10:01:06.785Z,4.60
2019-05-16T10:03:30.196Z,4.47
2019-05-16T10:05:53.738Z,3.73
2019-05-16T10:08:17.599Z,3.43
2019-05-16T10:10:41.029Z,4.97
2019-05-16T10:13:06.672Z,6.50
2019-05-16T10:15:29.874Z,6.37
2019-05-16T10:17:53.333Z,4.57
2019-05-16T10:20:17.132Z,6.50
2019-05-16T10:22:41.745Z,5.13
2019-05-16T10:25:06.885Z,4.30
2019-05-16T10:27:30.688Z,3.33
2019-05-16T10:29:54.160Z,7.70
2019-05-16T10:32:17.922Z,5.07
2019-05-16T10:34:41.375Z,4.27
2019-05-16T10:37:04.848Z,5.27
2019-05-16T10:39:28.270Z,12.97
2019-05-16T10:41:51.711Z,5.20
2019-05-16T10:44:17.449Z,8.47
2019-05-16T10:46:40.311Z,6.53
2019-05-16T10:49:03.766Z,5.17
2019-05-16T10:51:27.249Z,6.50
2019-05-16T10:54:05.657Z,5.17
2019-05-16T10:56:15.937Z,6.43
2019-05-16T10:58:59.615Z,5.03
2019-05-16T11:01:19.548Z,3.77
2019-05-16T11:03:29.788Z,5.93
2019-05-16T11:06:02.946Z,4.90
2019-05-16T11:08:18.401Z,5.47
2019-05-16T11:10:42.156Z,6.00
2019-05-16T11:13:08.190Z,6.83
2019-05-16T11:15:31.160Z,4.90
2019-05-16T11:17:57.369Z,6.70
2019-05-16T11:20:20.807Z,7.00
2019-05-16T11:22:44.286Z,5.67
2019-05-16T11:25:21.260Z,4.53
2019-05-16T11:27:33.392Z,6.83
2019-05-16T11:29:56.847Z,4.87
2019-05-16T11:32:20.274Z,5.77
2019-05-16T11:34:43.739Z,5.27
2019-05-16T11:37:07.206Z,4.73
2019-05-16T11:39:30.570Z,5.90
2019-05-16T11:41:54.039Z,4.87
2019-05-16T11:44:17.825Z,5.27
2019-05-16T11:46:41.349Z,5.57
2019-05-16T11:49:05.079Z,4.70
2019-05-16T11:51:28.530Z,6.33
2019-05-16T11:53:51.939Z,5.80
2019-05-16T11:56:15.406Z,7.50
2019-05-16T11:58:39.493Z,6.30
2019-05-16T12:01:03.018Z,3.87
2019-05-16T12:03:28.240Z,4.90
2019-05-16T12:05:51.625Z,5.30
2019-05-16T12:08:17.224Z,3.77
2019-05-16T12:10:40.223Z,5.83
2019-05-16T12:13:03.865Z,3.33
2019-05-16T12:15:27.554Z,4.20
2019-05-16T12:18:01.005Z,3.80
2019-05-16T12:20:16.778Z,5.17
2019-05-16T12:22:40.223Z,3.03
2019-05-16T12:25:07.883Z,4.83
2019-05-16T12:27:32.893Z,7.90
2019-05-16T12:29:58.664Z,3.93
2019-05-16T12:32:19.975Z,3.37
2019-05-16T12:34:43.385Z,3.83
2019-05-16T12:37:07.472Z,3.20
2019-05-16T12:39:31.150Z,4.17
2019-05-16T12:41:59.281Z,4.70
2019-05-16T12:44:19.738Z,4.40
2019-05-16T12:46:43.184Z,3.10
2019-05-16T12:49:07.149Z,4.60
2019-05-16T12:51:30.624Z,5.27
2019-05-16T12:53:54.041Z,4.20
2019-05-16T12:56:17.803Z,5.80
2019-05-16T12:58:42.436Z,4.30
2019-05-16T13:01:07.795Z,5.47
2019-05-16T13:03:31.484Z,4.20
2019-05-16T13:05:57.104Z,4.90
2019-05-16T13:08:20.179Z,8.03
2019-05-16T13:10:43.709Z,6.47
2019-05-16T13:13:07.802Z,5.07
2019-05-16T13:15:31.720Z,6.27
2019-05-16T13:17:57.125Z,5.83
2019-05-16T13:20:20.474Z,8.43
2019-05-16T13:22:43.918Z,4.40
2019-05-16T13:25:10.537Z,4.77
2019-05-16T13:27:33.994Z,5.50
2019-05-16T13:29:58.261Z,4.90
2019-05-16T13:32:22.079Z,5.77
2019-05-16T13:34:45.564Z,5.50
2019-05-16T13:37:23.873Z,6.50
2019-05-16T13:40:01.028Z,4.90
2019-05-16T13:42:33.214Z,5.60
2019-05-16T13:45:07.103Z,5.67
2019-05-16T13:47:31.439Z,4.90
2019-05-16T13:49:54.909Z,5.43
2019-05-16T13:52:18.363Z,6.03
2019-05-16T13:54:41.789Z,4.73
2019-05-16T13:57:06.914Z,5.13
2019-05-16T13:59:30.586Z,5.47
2019-05-16T14:01:54.046Z,5.13
2019-05-16T14:04:17.749Z,5.00
2019-05-16T14:06:41.764Z,6.30
2019-05-16T14:09:07.655Z,4.83
2019-05-16T14:11:31.063Z,4.90
2019-05-16T14:13:56.338Z,5.33
2019-05-16T14:16:19.663Z,8.03
2019-05-16T14:18:43.080Z,5.80
2019-05-16T14:21:06.996Z,5.40
2019-05-16T14:23:30.475Z,6.20
2019-05-16T14:25:53.895Z,5.03
2019-05-16T14:28:17.745Z,6.67
2019-05-16T14:30:41.254Z,4.60
2019-05-16T14:33:13.276Z,5.57
2019-05-16T14:35:29.956Z,3.60
2019-05-16T14:37:57.439Z,6.10
2019-05-16T14:40:18.967Z,5.43
2019-05-16T14:42:42.386Z,5.00
2019-05-16T14:45:12.104Z,5.83
2019-05-16T14:47:33.423Z,5.90
2019-05-16T14:49:56.855Z,5.20
2019-05-16T14:52:20.303Z,5.50
2019-05-16T14:54:44.028Z,5.67
2019-05-16T14:57:07.515Z,5.77
2019-05-16T14:59:31.262Z,6.33
2019-05-16T15:01:57.993Z,7.53
2019-05-16T15:04:19.869Z,6.47
2019-05-16T15:06:43.283Z,6.70
2019-05-16T15:09:08.362Z,7.80
2019-05-16T15:11:31.777Z,6.60
2019-05-16T15:13:57.446Z,6.40
2019-05-16T15:16:20.375Z,6.40
2019-05-16T15:18:43.829Z,6.70
2019-05-16T15:21:08.455Z,8.10
2019-05-16T15:23:32.402Z,10.93
2019-05-16T15:25:55.822Z,9.93
2019-05-16T15:28:19.286Z,6.77
2019-05-16T15:30:43.034Z,6.73
2019-05-16T15:33:08.479Z,8.00
2019-05-16T15:35:31.680Z,6.53
2019-05-16T15:37:58.781Z,6.70
2019-05-16T15:40:21.691Z,7.43
2019-05-16T15:42:45.119Z,8.27
2019-05-16T15:45:10.634Z,9.00
2019-05-16T15:47:34.071Z,7.50
2019-05-16T15:49:59.807Z,7.07
2019-05-16T15:52:22.779Z,19.77
2019-05-16T15:54:48.728Z,29.50
2019-05-16T15:57:12.157Z,30.43
2019-05-16T15:59:37.555Z,10.37
2019-05-16T16:02:00.742Z,9.33
2019-05-16T16:04:26.886Z,9.70
2019-05-16T16:06:49.429Z,10.00
2019-05-16T16:09:12.934Z,8.37
2019-05-16T16:11:37.445Z,13.07
2019-05-16T16:14:00.999Z,10.27
2019-05-16T16:16:26.653Z,8.87
2019-05-16T16:18:49.562Z,9.43
2019-05-16T16:21:13.025Z,8.00
2019-05-16T16:23:37.253Z,6.80
2019-05-16T16:26:00.972Z,8.30
2019-05-16T16:28:26.961Z,7.30
2019-05-16T16:30:49.601Z,7.13
2019-05-16T16:33:25.108Z,8.47
2019-05-16T16:35:38.266Z,5.87
2019-05-16T16:38:01.830Z,9.53
2019-05-16T16:40:26.667Z,9.73
2019-05-16T16:42:50.310Z,11.17
2019-05-16T16:45:16.823Z,8.97
2019-05-16T16:47:40.258Z,7.17
2019-05-16T16:50:08.138Z,6.73
2019-05-16T16:52:32.103Z,7.23
2019-05-16T16:54:56.851Z,5.90
2019-05-16T16:57:20.473Z,6.03
2019-05-16T16:59:43.954Z,6.20
2019-05-16T17:02:07.382Z,7.80
2019-05-16T17:04:30.797Z,6.83
2019-05-16T17:06:56.739Z,8.30
2019-05-16T17:09:19.499Z,8.37
2019-05-16T17:11:42.932Z,10.58
2019-05-16T17:14:06.950Z,8.03
2019-05-16T17:16:30.407Z,6.53
2019-05-16T17:18:53.831Z,8.03
2019-05-16T17:21:17.315Z,7.50
2019-05-16T17:23:40.719Z,7.33
2019-05-16T17:26:04.141Z,8.53
2019-05-16T17:28:27.605Z,10.00
2019-05-16T17:30:51.033Z,9.80
2019-05-16T17:33:17.831Z,10.17
2019-05-16T17:35:39.632Z,9.13
2019-05-16T17:38:03.098Z,9.37
2019-05-16T17:40:27.466Z,7.77
2019-05-16T17:42:51.170Z,7.50
2019-05-16T17:45:17.758Z,11.87
2019-05-16T17:47:40.414Z,10.10
2019-05-16T17:50:08.628Z,8.40
2019-05-16T17:52:32.084Z,9.60
2019-05-16T17:54:55.498Z,8.97
2019-05-16T17:57:18.956Z,8.23
2019-05-16T17:59:42.420Z,11.90
2019-05-16T18:02:06.480Z,7.60
2019-05-16T18:04:29.979Z,8.37
2019-05-16T18:06:53.404Z,9.30
2019-05-16T18:09:17.289Z,7.90
2019-05-16T18:11:40.711Z,9.63
2019-05-16T18:14:06.141Z,9.13
2019-05-16T18:16:29.347Z,8.30
2019-05-16T18:18:52.821Z,11.57
2019-05-16T18:21:17.034Z,9.30
2019-05-16T18:23:40.590Z,11.07
2019-05-16T18:26:04.016Z,9.87
2019-05-16T18:28:27.464Z,11.23
2019-05-16T18:30:50.925Z,8.10
2019-05-16T18:33:16.535Z,8.37
2019-05-16T18:35:39.479Z,9.47
2019-05-16T18:38:03.014Z,8.67
2019-05-16T18:40:27.101Z,9.83
2019-05-16T18:42:50.647Z,7.60
2019-05-16T18:45:16.481Z,8.80
2019-05-16T18:47:40.126Z,8.37
2019-05-16T18:50:06.707Z,9.03
2019-05-16T18:52:30.001Z,10.47
2019-05-16T18:54:53.419Z,9.53
2019-05-16T18:57:17.554Z,9.50
2019-05-16T18:59:41.191Z,10.33
2019-05-16T19:02:04.622Z,9.83
2019-05-16T19:04:28.086Z,11.97
2019-05-16T19:06:51.555Z,10.87
2019-05-16T19:09:16.596Z,10.63
2019-05-16T19:11:40.189Z,9.40
2019-05-16T19:14:03.724Z,10.63
2019-05-16T19:16:27.144Z,10.27
2019-05-16T19:18:50.606Z,8.00
2019-05-16T19:21:16.878Z,8.98
2019-05-16T19:23:40.514Z,8.87
2019-05-16T19:26:04.255Z,11.45
2019-05-16T19:28:28.698Z,10.77
2019-05-16T19:30:52.334Z,8.83
2019-05-16T19:33:17.491Z,9.37
2019-05-16T19:35:40.952Z,12.37
2019-05-16T19:38:06.786Z,11.80
2019-05-16T19:40:29.841Z,11.30
2019-05-16T19:42:53.608Z,12.50
2019-05-16T19:45:17.590Z,11.20
2019-05-16T19:47:41.437Z,13.27
2019-05-16T19:50:06.739Z,15.00
2019-05-16T19:52:30.366Z,11.20
2019-05-16T19:54:56.299Z,14.10
2019-05-16T19:57:19.083Z,12.83
2019-05-16T19:59:42.873Z,13.43
2019-05-16T20:02:07.631Z,12.33
2019-05-16T20:04:31.304Z,15.77
2019-05-16T20:06:56.681Z,15.73
2019-05-16T20:09:20.214Z,14.30
2019-05-16T20:11:43.668Z,14.60
2019-05-16T20:14:07.550Z,12.77
2019-05-16T20:16:31.161Z,11.07
2019-05-16T20:18:56.186Z,12.63
2019-05-16T20:21:19.721Z,10.03
2019-05-16T20:23:43.158Z,11.63
2019-05-16T20:26:07.816Z,10.50
2019-05-16T20:28:31.911Z,10.30
2019-05-16T20:30:57.114Z,11.93
2019-05-16T20:33:20.487Z,10.63
2019-05-16T20:35:43.951Z,9.83
2019-05-16T20:38:07.383Z,11.83
2019-05-16T20:40:30.874Z,12.07
2019-05-16T20:42:56.431Z,9.17
2019-05-16T20:45:19.924Z,12.97
2019-05-16T20:47:43.412Z,11.77
2019-05-16T20:50:07.873Z,11.67
2019-05-16T20:52:31.287Z,13.87
2019-05-16T20:54:57.630Z,14.07
2019-05-16T20:57:19.945Z,13.77
2019-05-16T20:59:43.354Z,13.30
2019-05-16T21:02:07.061Z,14.10
2019-05-16T21:04:30.427Z,12.13
2019-05-16T21:07:01.550Z,11.23
2019-05-16T21:09:19.073Z,12.40
2019-05-16T21:11:42.510Z,12.80
2019-05-16T21:14:07.098Z,14.10
2019-05-16T21:16:30.588Z,16.60
2019-05-16T21:18:54.019Z,13.17
2019-05-16T21:21:19.414Z,11.40
2019-05-16T21:23:42.673Z,11.40
2019-05-16T21:26:06.211Z,10.50
2019-05-16T21:28:29.666Z,12.90
2019-05-16T21:30:53.130Z,9.50
2019-05-16T21:33:18.715Z,10.30
2019-05-16T21:35:41.810Z,10.57
2019-05-16T21:38:08.631Z,8.83
2019-05-16T21:40:31.369Z,9.13
2019-05-16T21:42:58.559Z,9.77
2019-05-16T21:45:20.250Z,7.70
2019-05-16T21:47:43.711Z,7.47
2019-05-16T21:50:11.022Z,7.43
2019-05-16T21:52:36.389Z,7.93
2019-05-16T21:54:59.643Z,8.03
2019-05-16T21:57:23.374Z,7.70
2019-05-16T21:59:47.762Z,7.17
2019-05-16T22:02:11.649Z,9.07
2019-05-16T22:04:36.779Z,7.20
2019-05-16T22:07:00.428Z,8.97
2019-05-16T22:09:26.547Z,9.97
2019-05-16T22:11:49.649Z,9.20
2019-05-16T22:14:13.174Z,8.50
2019-05-16T22:16:37.123Z,9.93
2019-05-16T22:19:00.757Z,11.07
2019-05-16T22:21:26.941Z,9.37
2019-05-16T22:23:50.166Z,7.83
2019-05-16T22:26:13.625Z,11.20
2019-05-16T22:28:37.451Z,9.03
2019-05-16T22:31:01.404Z,8.57
2019-05-16T22:33:26.682Z,8.97
2019-05-16T22:35:50.070Z,10.37
2019-05-16T22:38:13.500Z,9.83
2019-05-16T22:40:37.478Z,8.97
2019-05-16T22:43:01.055Z,8.63
2019-05-16T22:45:26.625Z,10.60
2019-05-16T22:47:49.711Z,13.27
2019-05-16T22:50:13.678Z,12.63
2019-05-16T22:52:37.382Z,11.13
2019-05-16T22:55:00.809Z,9.23
2019-05-16T22:57:24.255Z,10.13
2019-05-16T22:59:47.676Z,10.97
2019-05-16T23:02:12.443Z,10.97
2019-05-16T23:04:36.721Z,13.47
2019-05-16T23:07:00.116Z,10.82
2019-05-16T23:09:23.540Z,9.83
2019-05-16T23:11:47.000Z,8.70
2019-05-16T23:14:10.423Z,10.60
2019-05-16T23:16:33.898Z,10.03
2019-05-16T23:18:57.315Z,9.63
2019-05-16T23:21:21.378Z,10.10
2019-05-16T23:23:46.539Z,8.20
2019-05-16T23:26:10.045Z,8.97
2019-05-16T23:28:33.519Z,10.60
2019-05-16T23:30:57.719Z,9.43
2019-05-16T23:33:21.278Z,10.27
2019-05-16T23:35:46.719Z,9.37
2019-05-16T23:38:19.272Z,10.73
2019-05-16T23:40:36.820Z,9.47
2019-05-16T23:43:00.172Z,11.27
2019-05-16T23:45:23.635Z,11.33
2019-05-16T23:47:47.313Z,10.40
2019-05-16T23:50:11.347Z,10.13
2019-05-16T23:52:36.774Z,9.23
2019-05-16T23:54:59.978Z,9.10
2019-05-16T23:57:23.399Z,8.17
2019-05-16T23:59:47.378Z,10.17
